sensor_id;sensor_type;location;lat;lon;timestamp;pressure;altitude;pressure_sealevel;temperature;humidity
75008;BME280;63554;48.940;12.050;2022-12-13T00:01:41;96950.78;;;-9.82;82.40
75008;BME280;63554;48.940;12.050;2022-12-13T00:05:45;96953.53;;;-9.84;82.43
75008;BME280;63554;48.940;12.050;2022-12-13T00:09:48;96946.94;;;-9.89;82.48
75008;BME280;63554;48.940;12.050;2022-12-13T00:13:53;96931.63;;;-9.96;83.02
75008;BME280;63554;48.940;12.050;2022-12-13T00:17:56;96937.06;;;-9.99;83.06
75008;BME280;63554;48.940;12.050;2022-12-13T00:21:58;96950.16;;;-9.99;82.78
75008;BME280;63554;48.940;12.050;2022-12-13T00:26:02;96929.31;;;-10.00;82.59
75008;BME280;63554;48.940;12.050;2022-12-13T00:30:07;96933.06;;;-10.04;82.20
75008;BME280;63554;48.940;12.050;2022-12-13T00:34:10;96936.53;;;-10.04;81.99
75008;BME280;63554;48.940;12.050;2022-12-13T00:38:13;96931.94;;;-10.00;82.19
75008;BME280;63554;48.940;12.050;2022-12-13T00:42:15;96928.38;;;-9.99;82.06
75008;BME280;63554;48.940;12.050;2022-12-13T00:46:20;96923.56;;;-10.05;82.13
75008;BME280;63554;48.940;12.050;2022-12-13T00:50:23;96925.66;;;-10.10;82.23
75008;BME280;63554;48.940;12.050;2022-12-13T00:54:26;96932.84;;;-10.14;82.30
75008;BME280;63554;48.940;12.050;2022-12-13T00:58:29;96929.59;;;-10.18;81.68
75008;BME280;63554;48.940;12.050;2022-12-13T01:02:33;96916.00;;;-10.23;82.25
75008;BME280;63554;48.940;12.050;2022-12-13T01:06:38;96909.09;;;-10.24;82.31
75008;BME280;63554;48.940;12.050;2022-12-13T01:10:42;96909.91;;;-10.23;82.05
75008;BME280;63554;48.940;12.050;2022-12-13T01:14:45;96902.94;;;-10.23;81.81
75008;BME280;63554;48.940;12.050;2022-12-13T01:18:57;96902.69;;;-10.20;81.35
75008;BME280;63554;48.940;12.050;2022-12-13T01:22:59;96912.03;;;-10.16;82.14
75008;BME280;63554;48.940;12.050;2022-12-13T01:27:02;96896.75;;;-10.22;82.32
75008;BME280;63554;48.940;12.050;2022-12-13T01:31:07;96901.34;;;-10.25;82.49
75008;BME280;63554;48.940;12.050;2022-12-13T01:35:12;96903.31;;;-10.29;81.76
75008;BME280;63554;48.940;12.050;2022-12-13T01:39:17;96901.78;;;-10.31;81.85
75008;BME280;63554;48.940;12.050;2022-12-13T01:43:48;96899.25;;;-10.33;81.93
75008;BME280;63554;48.940;12.050;2022-12-13T01:47:53;96903.56;;;-10.32;82.10
75008;BME280;63554;48.940;12.050;2022-12-13T01:52:02;96903.13;;;-10.26;81.91
75008;BME280;63554;48.940;12.050;2022-12-13T01:56:10;96898.44;;;-10.33;82.61
75008;BME280;63554;48.940;12.050;2022-12-13T02:00:15;96891.91;;;-10.28;84.34
75008;BME280;63554;48.940;12.050;2022-12-13T02:04:22;96881.50;;;-10.15;83.61
75008;BME280;63554;48.940;12.050;2022-12-13T02:08:29;96891.94;;;-10.02;83.77
75008;BME280;63554;48.940;12.050;2022-12-13T02:12:37;96883.78;;;-9.98;83.27
75008;BME280;63554;48.940;12.050;2022-12-13T02:16:47;96888.28;;;-9.87;83.71
75008;BME280;63554;48.940;12.050;2022-12-13T02:21:07;96886.50;;;-9.73;83.53
75008;BME280;63554;48.940;12.050;2022-12-13T02:25:36;96882.31;;;-9.63;84.01
75008;BME280;63554;48.940;12.050;2022-12-13T02:30:16;96883.75;;;-9.46;85.84
75008;BME280;63554;48.940;12.050;2022-12-13T02:34:23;96876.59;;;-9.31;86.20
75008;BME280;63554;48.940;12.050;2022-12-13T02:38:33;96869.53;;;-9.18;86.83
75008;BME280;63554;48.940;12.050;2022-12-13T02:42:42;96867.44;;;-9.13;87.23
75008;BME280;63554;48.940;12.050;2022-12-13T02:46:52;96873.25;;;-8.97;87.78
75008;BME280;63554;48.940;12.050;2022-12-13T02:50:57;96870.22;;;-8.79;90.26
75008;BME280;63554;48.940;12.050;2022-12-13T02:55:05;96849.53;;;-8.71;90.36
75008;BME280;63554;48.940;12.050;2022-12-13T02:59:11;96852.41;;;-8.63;90.63
75008;BME280;63554;48.940;12.050;2022-12-13T03:03:24;96846.50;;;-8.53;91.29
75008;BME280;63554;48.940;12.050;2022-12-13T03:07:38;96846.28;;;-8.50;91.25
75008;BME280;63554;48.940;12.050;2022-12-13T03:11:52;96846.88;;;-8.47;91.62
75008;BME280;63554;48.940;12.050;2022-12-13T03:16:25;96841.88;;;-8.39;91.08
75008;BME280;63554;48.940;12.050;2022-12-13T03:20:31;96845.22;;;-8.37;91.54
75008;BME280;63554;48.940;12.050;2022-12-13T03:24:33;96849.28;;;-8.32;91.48
75008;BME280;63554;48.940;12.050;2022-12-13T03:28:37;96846.41;;;-8.29;91.71
75008;BME280;63554;48.940;12.050;2022-12-13T03:32:40;96844.50;;;-8.27;91.27
75008;BME280;63554;48.940;12.050;2022-12-13T03:36:44;96844.66;;;-8.18;91.31
75008;BME280;63554;48.940;12.050;2022-12-13T03:40:47;96834.75;;;-8.14;92.00
75008;BME280;63554;48.940;12.050;2022-12-13T03:44:50;96830.84;;;-8.08;91.96
75008;BME280;63554;48.940;12.050;2022-12-13T03:48:52;96818.22;;;-8.03;91.82
75008;BME280;63554;48.940;12.050;2022-12-13T03:52:58;96829.66;;;-7.93;92.08
75008;BME280;63554;48.940;12.050;2022-12-13T03:57:02;96836.34;;;-7.89;91.76
75008;BME280;63554;48.940;12.050;2022-12-13T04:01:06;96823.09;;;-7.87;91.78
75008;BME280;63554;48.940;12.050;2022-12-13T04:05:10;96819.28;;;-7.95;91.37
75008;BME280;63554;48.940;12.050;2022-12-13T04:09:14;96814.75;;;-7.92;91.82
75008;BME280;63554;48.940;12.050;2022-12-13T04:13:16;96814.63;;;-7.91;92.25
75008;BME280;63554;48.940;12.050;2022-12-13T04:17:34;96809.97;;;-7.87;91.75
75008;BME280;63554;48.940;12.050;2022-12-13T04:21:37;96804.25;;;-7.81;91.95
75008;BME280;63554;48.940;12.050;2022-12-13T04:25:42;96800.06;;;-7.84;91.66
75008;BME280;63554;48.940;12.050;2022-12-13T04:29:45;96808.06;;;-7.85;91.11
75008;BME280;63554;48.940;12.050;2022-12-13T04:33:48;96803.53;;;-7.83;91.42
75008;BME280;63554;48.940;12.050;2022-12-13T04:37:51;96808.53;;;-7.80;91.59
75008;BME280;63554;48.940;12.050;2022-12-13T04:41:55;96817.38;;;-7.81;91.37
75008;BME280;63554;48.940;12.050;2022-12-13T04:45:58;96808.66;;;-7.82;90.68
75008;BME280;63554;48.940;12.050;2022-12-13T04:50:00;96805.66;;;-7.88;90.93
75008;BME280;63554;48.940;12.050;2022-12-13T04:54:03;96797.06;;;-7.90;90.41
75008;BME280;63554;48.940;12.050;2022-12-13T04:58:26;96792.91;;;-7.93;90.97
75008;BME280;63554;48.940;12.050;2022-12-13T05:02:29;96801.38;;;-7.89;91.01
75008;BME280;63554;48.940;12.050;2022-12-13T05:06:32;96793.13;;;-7.96;90.92
75008;BME280;63554;48.940;12.050;2022-12-13T05:10:36;96779.06;;;-7.95;91.44
75008;BME280;63554;48.940;12.050;2022-12-13T05:14:40;96784.31;;;-7.95;91.15
75008;BME280;63554;48.940;12.050;2022-12-13T05:18:43;96793.50;;;-7.89;91.04
75008;BME280;63554;48.940;12.050;2022-12-13T05:22:45;96783.50;;;-7.96;91.29
75008;BME280;63554;48.940;12.050;2022-12-13T05:26:48;96796.25;;;-7.91;90.54
75008;BME280;63554;48.940;12.050;2022-12-13T05:30:53;96791.94;;;-7.92;90.77
75008;BME280;63554;48.940;12.050;2022-12-13T05:34:56;96794.34;;;-7.89;90.38
75008;BME280;63554;48.940;12.050;2022-12-13T05:38:59;96790.41;;;-7.95;90.16
75008;BME280;63554;48.940;12.050;2022-12-13T05:43:02;96801.25;;;-7.99;90.42
75008;BME280;63554;48.940;12.050;2022-12-13T05:47:23;96800.06;;;-7.95;90.57
75008;BME280;63554;48.940;12.050;2022-12-13T05:51:26;96795.28;;;-8.01;90.48
75008;BME280;63554;48.940;12.050;2022-12-13T05:55:29;96793.38;;;-7.99;90.29
75008;BME280;63554;48.940;12.050;2022-12-13T05:59:32;96795.03;;;-7.98;90.42
75008;BME280;63554;48.940;12.050;2022-12-13T06:03:36;96794.00;;;-7.96;90.31
75008;BME280;63554;48.940;12.050;2022-12-13T06:07:39;96788.75;;;-7.96;89.77
75008;BME280;63554;48.940;12.050;2022-12-13T06:11:41;96791.38;;;-7.96;90.41
75008;BME280;63554;48.940;12.050;2022-12-13T06:15:44;96777.53;;;-7.98;90.02
75008;BME280;63554;48.940;12.050;2022-12-13T06:19:48;96777.03;;;-8.03;90.30
75008;BME280;63554;48.940;12.050;2022-12-13T06:23:51;96784.78;;;-8.12;89.44
75008;BME280;63554;48.940;12.050;2022-12-13T06:27:54;96801.22;;;-8.22;89.71
75008;BME280;63554;48.940;12.050;2022-12-13T06:31:58;96789.53;;;-8.18;89.66
75008;BME280;63554;48.940;12.050;2022-12-13T06:36:06;96798.38;;;-8.19;89.10
75008;BME280;63554;48.940;12.050;2022-12-13T06:40:09;96796.69;;;-8.20;89.62
75008;BME280;63554;48.940;12.050;2022-12-13T06:44:12;96789.53;;;-8.18;88.95
75008;BME280;63554;48.940;12.050;2022-12-13T06:48:15;96790.16;;;-7.58;92.80
75008;BME280;63554;48.940;12.050;2022-12-13T06:52:22;96790.34;;;-6.41;94.91
75008;BME280;63554;48.940;12.050;2022-12-13T06:56:24;96779.66;;;-5.57;94.65
75008;BME280;63554;48.940;12.050;2022-12-13T07:00:27;96792.53;;;-6.67;93.41
75008;BME280;63554;48.940;12.050;2022-12-13T07:04:39;96787.13;;;-7.30;92.26
75008;BME280;63554;48.940;12.050;2022-12-13T07:08:47;96799.13;;;-7.71;90.93
75008;BME280;63554;48.940;12.050;2022-12-13T07:12:50;96788.94;;;-6.99;93.01
75008;BME280;63554;48.940;12.050;2022-12-13T07:16:53;96786.78;;;-5.79;94.51
75008;BME280;63554;48.940;12.050;2022-12-13T07:21:04;96789.47;;;-5.28;95.01
75008;BME280;63554;48.940;12.050;2022-12-13T07:25:09;96798.31;;;-5.80;94.05
75008;BME280;63554;48.940;12.050;2022-12-13T07:29:29;96800.69;;;-6.07;93.59
75008;BME280;63554;48.940;12.050;2022-12-13T07:33:32;96789.56;;;-5.40;94.67
75008;BME280;63554;48.940;12.050;2022-12-13T07:37:34;96787.69;;;-5.59;93.39
75008;BME280;63554;48.940;12.050;2022-12-13T07:41:38;96791.28;;;-5.69;93.63
75008;BME280;63554;48.940;12.050;2022-12-13T07:45:41;96795.59;;;-5.59;92.94
75008;BME280;63554;48.940;12.050;2022-12-13T07:49:44;96799.28;;;-6.32;92.04
75008;BME280;63554;48.940;12.050;2022-12-13T07:53:46;96797.03;;;-6.90;91.19
75008;BME280;63554;48.940;12.050;2022-12-13T07:57:51;96807.66;;;-7.36;89.79
75008;BME280;63554;48.940;12.050;2022-12-13T08:01:54;96811.03;;;-7.67;89.57
75008;BME280;63554;48.940;12.050;2022-12-13T08:06:01;96821.81;;;-7.82;89.22
75008;BME280;63554;48.940;12.050;2022-12-13T08:10:04;96811.88;;;-8.01;88.91
75008;BME280;63554;48.940;12.050;2022-12-13T08:14:08;96813.66;;;-8.12;89.06
75008;BME280;63554;48.940;12.050;2022-12-13T08:18:11;96825.69;;;-8.10;89.43
75008;BME280;63554;48.940;12.050;2022-12-13T08:22:14;96816.78;;;-8.07;89.42
75008;BME280;63554;48.940;12.050;2022-12-13T08:26:24;96819.72;;;-8.12;88.96
75008;BME280;63554;48.940;12.050;2022-12-13T08:30:29;96826.84;;;-8.25;88.28
75008;BME280;63554;48.940;12.050;2022-12-13T08:34:32;96819.00;;;-8.14;88.53
75008;BME280;63554;48.940;12.050;2022-12-13T08:38:35;96816.16;;;-7.88;88.17
75008;BME280;63554;48.940;12.050;2022-12-13T08:42:38;96825.94;;;-8.02;87.40
75008;BME280;63554;48.940;12.050;2022-12-13T08:46:42;96827.72;;;-8.02;86.61
75008;BME280;63554;48.940;12.050;2022-12-13T08:50:45;96838.94;;;-8.00;87.10
75008;BME280;63554;48.940;12.050;2022-12-13T08:54:47;96841.38;;;-7.86;86.82
75008;BME280;63554;48.940;12.050;2022-12-13T08:58:50;96844.22;;;-7.44;86.48
75008;BME280;63554;48.940;12.050;2022-12-13T09:02:56;96827.34;;;-7.19;85.43
75008;BME280;63554;48.940;12.050;2022-12-13T09:06:59;96835.03;;;-6.83;85.10
75008;BME280;63554;48.940;12.050;2022-12-13T09:11:02;96830.25;;;-6.57;83.99
75008;BME280;63554;48.940;12.050;2022-12-13T09:15:22;96830.13;;;-6.23;83.21
75008;BME280;63554;48.940;12.050;2022-12-13T09:19:36;96835.94;;;-5.99;82.45
75008;BME280;63554;48.940;12.050;2022-12-13T09:23:39;96831.25;;;-5.95;81.95
75008;BME280;63554;48.940;12.050;2022-12-13T09:27:46;96823.25;;;-5.84;81.91
75008;BME280;63554;48.940;12.050;2022-12-13T09:31:49;96828.50;;;-5.53;81.71
75008;BME280;63554;48.940;12.050;2022-12-13T09:35:55;96818.59;;;-5.30;79.45
75008;BME280;63554;48.940;12.050;2022-12-13T09:39:58;96812.97;;;-4.96;79.37
75008;BME280;63554;48.940;12.050;2022-12-13T09:44:23;96812.47;;;-4.70;78.32
75008;BME280;63554;48.940;12.050;2022-12-13T09:48:34;96800.81;;;-4.68;77.28
75008;BME280;63554;48.940;12.050;2022-12-13T09:52:41;96811.38;;;-4.58;76.33
75008;BME280;63554;48.940;12.050;2022-12-13T09:56:44;96813.44;;;-4.32;76.76
75008;BME280;63554;48.940;12.050;2022-12-13T10:00:56;96790.59;;;-4.14;75.12
75008;BME280;63554;48.940;12.050;2022-12-13T10:05:12;96781.63;;;-3.74;74.90
75008;BME280;63554;48.940;12.050;2022-12-13T10:09:25;96777.44;;;-3.39;73.07
75008;BME280;63554;48.940;12.050;2022-12-13T10:13:36;96770.69;;;-3.33;72.38
75008;BME280;63554;48.940;12.050;2022-12-13T10:17:42;96764.53;;;-3.24;71.36
75008;BME280;63554;48.940;12.050;2022-12-13T10:21:57;96757.47;;;-3.06;71.11
75008;BME280;63554;48.940;12.050;2022-12-13T10:26:07;96754.59;;;-2.94;70.76
75008;BME280;63554;48.940;12.050;2022-12-13T10:30:25;96737.88;;;-2.95;68.58
75008;BME280;63554;48.940;12.050;2022-12-13T10:34:34;96734.56;;;-2.97;70.65
75008;BME280;63554;48.940;12.050;2022-12-13T10:38:41;96743.84;;;-2.57;68.22
75008;BME280;63554;48.940;12.050;2022-12-13T10:43:04;96739.72;;;-2.33;66.96
75008;BME280;63554;48.940;12.050;2022-12-13T10:47:15;96733.31;;;-2.05;66.48
75008;BME280;63554;48.940;12.050;2022-12-13T10:51:21;96748.06;;;-2.02;66.11
75008;BME280;63554;48.940;12.050;2022-12-13T10:55:27;96738.88;;;-1.90;65.41
75008;BME280;63554;48.940;12.050;2022-12-13T10:59:34;96735.81;;;-1.69;63.61
75008;BME280;63554;48.940;12.050;2022-12-13T11:03:37;96734.56;;;-1.56;64.75
75008;BME280;63554;48.940;12.050;2022-12-13T11:07:40;96736.84;;;-1.62;64.03
75008;BME280;63554;48.940;12.050;2022-12-13T11:11:43;96725.97;;;-1.85;63.44
75008;BME280;63554;48.940;12.050;2022-12-13T11:15:53;96726.06;;;-1.68;63.64
75008;BME280;63554;48.940;12.050;2022-12-13T11:19:59;96712.50;;;-1.57;63.84
75008;BME280;63554;48.940;12.050;2022-12-13T11:24:05;96710.78;;;-1.32;63.13
75008;BME280;63554;48.940;12.050;2022-12-13T11:28:23;96708.78;;;-1.30;61.98
75008;BME280;63554;48.940;12.050;2022-12-13T11:32:40;96698.38;;;-1.23;61.41
75008;BME280;63554;48.940;12.050;2022-12-13T11:36:54;96713.53;;;-1.50;61.91
75008;BME280;63554;48.940;12.050;2022-12-13T11:41:05;96710.97;;;-1.25;61.34
75008;BME280;63554;48.940;12.050;2022-12-13T11:45:14;96709.91;;;-1.49;61.57
75008;BME280;63554;48.940;12.050;2022-12-13T11:49:33;96698.53;;;-1.25;61.62
75008;BME280;63554;48.940;12.050;2022-12-13T11:53:44;96704.13;;;-1.28;61.19
75008;BME280;63554;48.940;12.050;2022-12-13T11:57:52;96686.28;;;-0.93;60.46
75008;BME280;63554;48.940;12.050;2022-12-13T12:02:00;96700.75;;;-0.30;58.73
75008;BME280;63554;48.940;12.050;2022-12-13T12:06:20;96691.72;;;0.12;56.93
75008;BME280;63554;48.940;12.050;2022-12-13T12:10:28;96686.84;;;0.24;56.82
75008;BME280;63554;48.940;12.050;2022-12-13T12:14:37;96670.66;;;0.42;56.10
75008;BME280;63554;48.940;12.050;2022-12-13T12:18:43;96662.53;;;0.27;54.49
75008;BME280;63554;48.940;12.050;2022-12-13T12:22:55;96673.34;;;0.34;54.17
75008;BME280;63554;48.940;12.050;2022-12-13T12:27:16;96675.59;;;0.14;53.64
75008;BME280;63554;48.940;12.050;2022-12-13T12:31:29;96674.19;;;-0.38;55.13
75008;BME280;63554;48.940;12.050;2022-12-13T12:35:54;96672.53;;;-0.31;54.95
75008;BME280;63554;48.940;12.050;2022-12-13T12:40:04;96667.00;;;-0.13;54.96
75008;BME280;63554;48.940;12.050;2022-12-13T12:44:21;96673.19;;;-0.37;55.36
75008;BME280;63554;48.940;12.050;2022-12-13T12:49:00;96665.53;;;-0.40;56.84
75008;BME280;63554;48.940;12.050;2022-12-13T12:53:28;96666.00;;;-0.04;55.64
75008;BME280;63554;48.940;12.050;2022-12-13T12:57:36;96652.75;;;0.28;54.38
75008;BME280;63554;48.940;12.050;2022-12-13T13:01:55;96661.22;;;-0.25;55.71
75008;BME280;63554;48.940;12.050;2022-12-13T13:06:01;96663.88;;;-0.33;57.33
75008;BME280;63554;48.940;12.050;2022-12-13T13:10:07;96657.47;;;0.09;56.78
75008;BME280;63554;48.940;12.050;2022-12-13T13:14:30;96664.59;;;0.56;54.66
75008;BME280;63554;48.940;12.050;2022-12-13T13:18:49;96667.47;;;0.47;55.26
75008;BME280;63554;48.940;12.050;2022-12-13T13:22:53;96668.41;;;0.23;55.48
75008;BME280;63554;48.940;12.050;2022-12-13T13:27:26;96672.53;;;0.25;58.36
75008;BME280;63554;48.940;12.050;2022-12-13T13:31:53;96665.97;;;0.44;54.47
75008;BME280;63554;48.940;12.050;2022-12-13T13:36:02;96674.25;;;0.18;55.10
75008;BME280;63554;48.940;12.050;2022-12-13T13:40:28;96689.44;;;-0.15;56.78
75008;BME280;63554;48.940;12.050;2022-12-13T13:49:21;96687.00;;;-0.58;58.04
75008;BME280;63554;48.940;12.050;2022-12-13T13:54:14;96687.66;;;-0.48;56.80
75008;BME280;63554;48.940;12.050;2022-12-13T13:58:55;96685.25;;;-1.25;59.29
75008;BME280;63554;48.940;12.050;2022-12-13T14:08:16;96690.44;;;-1.57;61.01
75008;BME280;63554;48.940;12.050;2022-12-13T14:12:42;96686.22;;;-1.76;61.00
75008;BME280;63554;48.940;12.050;2022-12-13T14:22:06;96688.56;;;-2.34;63.57
75008;BME280;63554;48.940;12.050;2022-12-13T14:26:24;96689.44;;;-2.51;64.37
75008;BME280;63554;48.940;12.050;2022-12-13T14:30:30;96673.69;;;-2.97;65.64
75008;BME280;63554;48.940;12.050;2022-12-13T14:34:34;96665.94;;;-3.62;67.25
75008;BME280;63554;48.940;12.050;2022-12-13T14:38:37;96666.84;;;-3.81;68.88
75008;BME280;63554;48.940;12.050;2022-12-13T14:42:41;96681.22;;;-3.84;69.09
75008;BME280;63554;48.940;12.050;2022-12-13T14:46:50;96678.03;;;-3.87;69.10
75008;BME280;63554;48.940;12.050;2022-12-13T14:50:54;96679.72;;;-3.96;69.44
75008;BME280;63554;48.940;12.050;2022-12-13T14:54:57;96685.59;;;-4.02;70.36
75008;BME280;63554;48.940;12.050;2022-12-13T14:59:10;96664.47;;;-4.12;70.57
75008;BME280;63554;48.940;12.050;2022-12-13T15:03:20;96655.59;;;-4.11;71.07
75008;BME280;63554;48.940;12.050;2022-12-13T15:07:26;96650.56;;;-4.04;70.47
75008;BME280;63554;48.940;12.050;2022-12-13T15:11:34;96658.94;;;-4.09;70.52
75008;BME280;63554;48.940;12.050;2022-12-13T15:15:38;96655.91;;;-4.24;71.07
75008;BME280;63554;48.940;12.050;2022-12-13T15:19:41;96661.41;;;-4.35;72.63
75008;BME280;63554;48.940;12.050;2022-12-13T15:23:50;96660.44;;;-4.44;72.12
75008;BME280;63554;48.940;12.050;2022-12-13T15:27:54;96653.63;;;-4.46;72.75
75008;BME280;63554;48.940;12.050;2022-12-13T15:31:59;96648.94;;;-4.52;73.19
75008;BME280;63554;48.940;12.050;2022-12-13T15:36:05;96650.34;;;-4.58;72.47
75008;BME280;63554;48.940;12.050;2022-12-13T15:40:13;96650.50;;;-4.69;73.49
75008;BME280;63554;48.940;12.050;2022-12-13T15:44:18;96660.34;;;-4.71;74.16
75008;BME280;63554;48.940;12.050;2022-12-13T15:48:26;96654.81;;;-4.78;74.47
75008;BME280;63554;48.940;12.050;2022-12-13T15:52:32;96657.47;;;-4.88;75.22
75008;BME280;63554;48.940;12.050;2022-12-13T15:56:37;96659.44;;;-5.00;74.76
75008;BME280;63554;48.940;12.050;2022-12-13T16:00:47;96657.88;;;-5.02;75.14
75008;BME280;63554;48.940;12.050;2022-12-13T16:04:51;96671.06;;;-5.02;74.91
75008;BME280;63554;48.940;12.050;2022-12-13T16:08:56;96660.53;;;-5.12;74.55
75008;BME280;63554;48.940;12.050;2022-12-13T16:13:02;96659.69;;;-5.22;74.66
75008;BME280;63554;48.940;12.050;2022-12-13T16:17:15;96670.53;;;-5.25;75.13
75008;BME280;63554;48.940;12.050;2022-12-13T16:21:22;96660.81;;;-5.34;75.64
75008;BME280;63554;48.940;12.050;2022-12-13T16:25:26;96662.88;;;-5.38;76.28
75008;BME280;63554;48.940;12.050;2022-12-13T16:29:28;96662.47;;;-5.33;76.90
75008;BME280;63554;48.940;12.050;2022-12-13T16:33:31;96650.53;;;-5.38;76.71
75008;BME280;63554;48.940;12.050;2022-12-13T16:37:36;96651.06;;;-5.53;77.49
75008;BME280;63554;48.940;12.050;2022-12-13T16:41:41;96656.50;;;-5.45;77.44
75008;BME280;63554;48.940;12.050;2022-12-13T16:45:49;96654.00;;;-5.37;77.12
75008;BME280;63554;48.940;12.050;2022-12-13T16:49:52;96653.59;;;-5.32;76.74
75008;BME280;63554;48.940;12.050;2022-12-13T16:53:56;96642.75;;;-5.39;76.84
75008;BME280;63554;48.940;12.050;2022-12-13T16:58:00;96639.28;;;-5.49;76.92
75008;BME280;63554;48.940;12.050;2022-12-13T17:02:03;96639.97;;;-5.57;77.71
75008;BME280;63554;48.940;12.050;2022-12-13T17:06:07;96634.44;;;-5.54;77.80
75008;BME280;63554;48.940;12.050;2022-12-13T17:10:13;96626.78;;;-5.57;77.53
75008;BME280;63554;48.940;12.050;2022-12-13T17:14:16;96634.00;;;-5.59;77.81
75008;BME280;63554;48.940;12.050;2022-12-13T17:18:19;96633.31;;;-5.61;77.84
75008;BME280;63554;48.940;12.050;2022-12-13T17:22:21;96630.28;;;-5.57;77.79
75008;BME280;63554;48.940;12.050;2022-12-13T17:26:26;96614.88;;;-5.61;78.58
75008;BME280;63554;48.940;12.050;2022-12-13T17:30:29;96611.09;;;-5.59;78.95
75008;BME280;63554;48.940;12.050;2022-12-13T17:34:35;96621.53;;;-5.57;78.88
75008;BME280;63554;48.940;12.050;2022-12-13T17:38:40;96600.44;;;-5.57;78.49
75008;BME280;63554;48.940;12.050;2022-12-13T17:42:47;96602.81;;;-5.54;78.04
75008;BME280;63554;48.940;12.050;2022-12-13T17:46:50;96600.19;;;-5.44;77.71
75008;BME280;63554;48.940;12.050;2022-12-13T17:50:55;96594.22;;;-5.46;77.08
75008;BME280;63554;48.940;12.050;2022-12-13T17:54:58;96594.59;;;-5.51;77.53
75008;BME280;63554;48.940;12.050;2022-12-13T17:59:02;96595.59;;;-5.52;77.17
75008;BME280;63554;48.940;12.050;2022-12-13T18:03:05;96582.41;;;-5.23;87.50
75008;BME280;63554;48.940;12.050;2022-12-13T18:07:08;96584.59;;;-5.08;85.51
75008;BME280;63554;48.940;12.050;2022-12-13T18:11:12;96590.97;;;-5.01;79.21
75008;BME280;63554;48.940;12.050;2022-12-13T18:15:35;96598.63;;;-5.37;77.29
75008;BME280;63554;48.940;12.050;2022-12-13T18:19:38;96595.47;;;-5.60;76.80
75008;BME280;63554;48.940;12.050;2022-12-13T18:23:51;96598.88;;;-5.89;77.48
75008;BME280;63554;48.940;12.050;2022-12-13T18:27:56;96608.59;;;-5.89;77.74
75008;BME280;63554;48.940;12.050;2022-12-13T18:32:07;96601.09;;;-5.94;78.17
75008;BME280;63554;48.940;12.050;2022-12-13T18:36:18;96607.19;;;-5.93;77.72
75008;BME280;63554;48.940;12.050;2022-12-13T18:40:28;96602.75;;;-6.12;77.62
75008;BME280;63554;48.940;12.050;2022-12-13T18:44:32;96606.75;;;-6.18;79.09
75008;BME280;63554;48.940;12.050;2022-12-13T18:48:36;96596.78;;;-6.14;79.05
75008;BME280;63554;48.940;12.050;2022-12-13T18:52:41;96596.25;;;-6.08;79.06
75008;BME280;63554;48.940;12.050;2022-12-13T18:56:47;96591.78;;;-6.08;78.28
75008;BME280;63554;48.940;12.050;2022-12-13T19:00:54;96591.09;;;-6.10;78.16
75008;BME280;63554;48.940;12.050;2022-12-13T19:05:06;96593.16;;;-6.13;79.64
75008;BME280;63554;48.940;12.050;2022-12-13T19:09:09;96593.16;;;-6.13;79.39
75008;BME280;63554;48.940;12.050;2022-12-13T19:13:12;96594.81;;;-6.22;78.83
75008;BME280;63554;48.940;12.050;2022-12-13T19:17:15;96593.56;;;-6.28;79.14
75008;BME280;63554;48.940;12.050;2022-12-13T19:21:24;96597.28;;;-6.30;79.66
75008;BME280;63554;48.940;12.050;2022-12-13T19:25:27;96605.88;;;-6.28;79.75
75008;BME280;63554;48.940;12.050;2022-12-13T19:29:30;96604.53;;;-6.23;79.63
75008;BME280;63554;48.940;12.050;2022-12-13T19:33:34;96609.66;;;-6.21;79.38
75008;BME280;63554;48.940;12.050;2022-12-13T19:37:42;96605.34;;;-6.22;80.31
75008;BME280;63554;48.940;12.050;2022-12-13T19:41:45;96585.94;;;-6.31;80.33
75008;BME280;63554;48.940;12.050;2022-12-13T19:45:48;96593.53;;;-6.38;81.00
75008;BME280;63554;48.940;12.050;2022-12-13T19:49:51;96582.69;;;-6.44;81.84
75008;BME280;63554;48.940;12.050;2022-12-13T19:53:55;96582.28;;;-6.40;81.92
75008;BME280;63554;48.940;12.050;2022-12-13T19:57:58;96578.13;;;-6.42;81.90
75008;BME280;63554;48.940;12.050;2022-12-13T20:02:01;96560.00;;;-6.36;82.44
75008;BME280;63554;48.940;12.050;2022-12-13T20:06:10;96555.84;;;-6.38;81.91
75008;BME280;63554;48.940;12.050;2022-12-13T20:10:14;96560.13;;;-6.37;81.88
75008;BME280;63554;48.940;12.050;2022-12-13T20:14:17;96552.78;;;-6.43;82.30
75008;BME280;63554;48.940;12.050;2022-12-13T20:18:20;96539.03;;;-6.47;81.93
75008;BME280;63554;48.940;12.050;2022-12-13T20:22:25;96541.84;;;-6.48;82.21
75008;BME280;63554;48.940;12.050;2022-12-13T20:26:32;96539.47;;;-6.51;82.04
75008;BME280;63554;48.940;12.050;2022-12-13T20:30:35;96529.22;;;-6.54;82.66
75008;BME280;63554;48.940;12.050;2022-12-13T20:34:38;96510.91;;;-6.66;83.18
75008;BME280;63554;48.940;12.050;2022-12-13T20:38:41;96508.81;;;-6.72;83.15
75008;BME280;63554;48.940;12.050;2022-12-13T20:42:51;96504.38;;;-6.71;83.80
75008;BME280;63554;48.940;12.050;2022-12-13T20:46:57;96515.72;;;-6.71;84.12
75008;BME280;63554;48.940;12.050;2022-12-13T20:51:00;96510.47;;;-6.61;83.39
75008;BME280;63554;48.940;12.050;2022-12-13T20:55:08;96498.97;;;-6.70;83.29
75008;BME280;63554;48.940;12.050;2022-12-13T20:59:13;96495.25;;;-6.67;83.87
75008;BME280;63554;48.940;12.050;2022-12-13T21:03:16;96495.09;;;-6.66;83.17
75008;BME280;63554;48.940;12.050;2022-12-13T21:07:18;96502.59;;;-6.61;83.71
75008;BME280;63554;48.940;12.050;2022-12-13T21:11:51;96497.06;;;-6.58;83.67
75008;BME280;63554;48.940;12.050;2022-12-13T21:16:06;96487.59;;;-6.70;83.12
75008;BME280;63554;48.940;12.050;2022-12-13T21:20:09;96475.69;;;-6.74;83.49
75008;BME280;63554;48.940;12.050;2022-12-13T21:24:13;96472.78;;;-6.81;83.52
75008;BME280;63554;48.940;12.050;2022-12-13T21:28:22;96473.72;;;-6.82;84.32
75008;BME280;63554;48.940;12.050;2022-12-13T21:32:26;96466.81;;;-6.83;84.00
75008;BME280;63554;48.940;12.050;2022-12-13T21:36:33;96470.38;;;-6.84;84.57
75008;BME280;63554;48.940;12.050;2022-12-13T21:40:43;96456.53;;;-6.86;84.83
75008;BME280;63554;48.940;12.050;2022-12-13T21:44:46;96449.63;;;-6.87;84.91
75008;BME280;63554;48.940;12.050;2022-12-13T21:48:50;96451.03;;;-6.83;85.24